Capitol Logistics 662


SPJC
Jorge Chávez International Airport
Lima, PE
KMIA
Miami International Airport
Miami, US

Route Details

Aircraft Information
Primary: Boeing 767-300BDSF
Backup: Not Available
Route Data
Distance: 2376nm
Sched. Duration: 6h 00m
Avg. Duration: 5h 29m (-70m)
Times Flown: 7
Recm'd Route: XOPLI UG448 IKBIX Y183 PEAKY DVALL CURSO5
Planned Altitude: 34,000ft
Origin Wx: SPJC 271600Z 19006KT 160V230 CAVOK 27/21 Q1014 NOSIG RMK PP000
Dest. Wx: KMIA 271553Z 32011G19KT 10SM FEW110 BKN140 BKN230 18/05 A3016 RMK AO2 SLP213 T01830050
Notes:

Financial History
Total Freight: 697,271lbs
Average Load: 99,610lbs/flt
Fuel Used: 437,813lbs
Avg. Fuel Used: 62,545lbs/flt
Fuel Expense: $350,250
Avg. Fuel Expense: $50,036
Avg. Fuel Cost: $0.80/lbs
Total Gross Income: $2,045,931
Pilot Pay: $1,533
Total Expenses: $221,325
Total Revenue: $1,465,322
Average Revenue: $292,275.80